Haukur — OZ2119 — position and weather

sailwx.info

Track history (hours):
 
Tides and Currents Weather Stations Pressure Air Temp Water Temp Dewpoint Dewpoint Depression Visibility Wind Speed Wind Dir Waves Ship Positions

Haukur

Last reported at 2016-Feb-06 01:15 UTC. Time now 2016-Feb-06 03:04 UTC.
Position N 64°08' W 021°50'.

Length 75 m; draft 5.9 m.

Type: Cargo ship. MMSI: 231812000.

Date/timePositionNaut miles runAvg speedWind from/ knotsBaromVisibWave heightAir tempDewpointWater temp
2016-Feb-06 01:15N 64°08' W 021°50'0 0.0
2016-Feb-06 00:33N 64°08' W 021°50'0 0.0
2016-Feb-05 23:33N 64°08' W 021°50'0 0.0
2016-Feb-05 22:33N 64°08' W 021°50'0 0.0
2016-Feb-05 21:33N 64°08' W 021°50'0 0.0
2016-Feb-05 20:33N 64°08' W 021°50'0 0.0
2016-Feb-05 11:18N 64°08' W 021°50'0 0.0
2016-Feb-05 10:24N 64°08' W 021°50'0 0.0
2016-Feb-05 09:21N 64°08' W 021°50'0 0.0
2016-Feb-05 08:33N 64°08' W 021°50'0 0.0
2016-Feb-05 07:24N 64°08' W 021°50'0 0.0
2016-Feb-05 06:32N 64°08' W 021°50'0 0.0
2016-Feb-05 05:20N 64°08' W 021°50'0 0.0
2016-Feb-05 04:26N 64°08' W 021°50'0 0.0
2016-Feb-05 03:29N 64°08' W 021°50'0 0.0
2016-Feb-05 02:20N 64°08' W 021°50'0 0.0
2016-Feb-05 01:32N 64°08' W 021°50'0 0.0
2016-Feb-05 00:29N 64°08' W 021°50'0 0.0
2016-Feb-04 22:32N 64°08' W 021°50'0 0.0
2016-Feb-04 21:17N 64°08' W 021°50'0 0.0
2016-Feb-04 20:32N 64°08' W 021°50'0 0.0
2016-Feb-04 19:32N 64°08' W 021°50'0 0.0
2016-Feb-04 18:32N 64°08' W 021°50'0 0.0
2016-Feb-04 13:32N 64°08' W 021°50'0 0.0
2016-Feb-04 12:17N 64°08' W 021°50'0 0.0
2016-Feb-04 11:32N 64°08' W 021°50'0 0.0
2016-Feb-04 09:23N 64°08' W 021°50'0 0.0
2016-Feb-04 08:03N 64°08' W 021°50'2 3.6
2016-Feb-04 07:33N 64°10' W 021°52'5 4.8
2016-Feb-04 06:33N 64°11' W 022°03'5 5.1
2016-Feb-04 05:33N 64°10' W 022°15'6 6.3
2016-Feb-04 04:33N 64°09' W 022°29'27 5.3
2016-Feb-03 23:30N 63°42' W 022°18'  
2016-Jan-29 01:18N 57°48' E 005°55'3 4.4
2016-Jan-29 00:33N 57°49' E 006°01'5 5.1
2016-Jan-28 23:33N 57°48' E 006°11'5 5.3
2016-Jan-28 22:33N 57°48' E 006°21'6 5.9
2016-Jan-28 21:33N 57°48' E 006°32'6 6.2
2016-Jan-28 20:33N 57°47' E 006°43'6 6.1
2016-Jan-28 19:33N 57°46' E 006°55'6 6.2
2016-Jan-28 18:33N 57°46' E 007°06'6 5.9
2016-Jan-28 17:33N 57°46' E 007°18'96 4.3
2016-Jan-27 19:03N 57°49' E 010°18'4 7.2
2016-Jan-27 18:33N 57°49' E 010°25'7 7.2
2016-Jan-27 17:33N 57°49' E 010°38'6 6.1
2016-Jan-27 16:33N 57°48' E 010°49'9 9.2
2016-Jan-27 15:33N 57°41' E 011°02'9 8.7
2016-Jan-27 14:33N 57°35' E 011°13'9 9.3
2016-Jan-27 13:33N 57°29' E 011°26'10 9.6
2016-Jan-27 12:33N 57°20' E 011°32'10 9.8
2016-Jan-27 11:33N 57°11' E 011°38'63 9.0
2016-Jan-27 04:33N 56°14' E 012°27'8 8.5
2016-Jan-27 03:33N 56°06' E 012°34'9 8.6
2016-Jan-27 02:33N 55°59' E 012°42'9 8.7
2016-Jan-27 01:33N 55°50' E 012°43'  
Track history (hours):
 
Tides and Currents Weather Stations Pressure Air Temp Water Temp Dewpoint Dewpoint Depression Visibility Wind Speed Wind Dir Waves Ship Positions

Haukur

Last reported at 2016-Feb-06 01:15 UTC. Time now 2016-Feb-06 03:04 UTC.
Position N 64°08' W 021°50'.

Length 75 m; draft 5.9 m.

Type: Cargo ship. MMSI: 231812000.

Date/timePositionNaut miles runAvg speedWind from/ knotsBaromVisibWave heightAir tempDewpointWater temp
2016-Feb-06 01:15N 64°08' W 021°50'0 0.0
2016-Feb-06 00:33N 64°08' W 021°50'0 0.0
2016-Feb-05 23:33N 64°08' W 021°50'0 0.0
2016-Feb-05 22:33N 64°08' W 021°50'0 0.0
2016-Feb-05 21:33N 64°08' W 021°50'0 0.0
2016-Feb-05 20:33N 64°08' W 021°50'0 0.0
2016-Feb-05 11:18N 64°08' W 021°50'0 0.0
2016-Feb-05 10:24N 64°08' W 021°50'0 0.0
2016-Feb-05 09:21N 64°08' W 021°50'0 0.0
2016-Feb-05 08:33N 64°08' W 021°50'0 0.0
2016-Feb-05 07:24N 64°08' W 021°50'0 0.0
2016-Feb-05 06:32N 64°08' W 021°50'0 0.0
2016-Feb-05 05:20N 64°08' W 021°50'0 0.0
2016-Feb-05 04:26N 64°08' W 021°50'0 0.0
2016-Feb-05 03:29N 64°08' W 021°50'0 0.0
2016-Feb-05 02:20N 64°08' W 021°50'0 0.0
2016-Feb-05 01:32N 64°08' W 021°50'0 0.0
2016-Feb-05 00:29N 64°08' W 021°50'0 0.0
2016-Feb-04 22:32N 64°08' W 021°50'0 0.0
2016-Feb-04 21:17N 64°08' W 021°50'0 0.0
2016-Feb-04 20:32N 64°08' W 021°50'0 0.0
2016-Feb-04 19:32N 64°08' W 021°50'0 0.0
2016-Feb-04 18:32N 64°08' W 021°50'0 0.0
2016-Feb-04 13:32N 64°08' W 021°50'0 0.0
2016-Feb-04 12:17N 64°08' W 021°50'0 0.0
2016-Feb-04 11:32N 64°08' W 021°50'0 0.0
2016-Feb-04 09:23N 64°08' W 021°50'0 0.0
2016-Feb-04 08:03N 64°08' W 021°50'2 3.6
2016-Feb-04 07:33N 64°10' W 021°52'5 4.8
2016-Feb-04 06:33N 64°11' W 022°03'5 5.1
2016-Feb-04 05:33N 64°10' W 022°15'6 6.3
2016-Feb-04 04:33N 64°09' W 022°29'27 5.3
2016-Feb-03 23:30N 63°42' W 022°18'  
2016-Jan-29 01:18N 57°48' E 005°55'3 4.4
2016-Jan-29 00:33N 57°49' E 006°01'5 5.1
2016-Jan-28 23:33N 57°48' E 006°11'5 5.3
2016-Jan-28 22:33N 57°48' E 006°21'6 5.9
2016-Jan-28 21:33N 57°48' E 006°32'6 6.2
2016-Jan-28 20:33N 57°47' E 006°43'6 6.1
2016-Jan-28 19:33N 57°46' E 006°55'6 6.2
2016-Jan-28 18:33N 57°46' E 007°06'6 5.9
2016-Jan-28 17:33N 57°46' E 007°18'96 4.3
2016-Jan-27 19:03N 57°49' E 010°18'4 7.2
2016-Jan-27 18:33N 57°49' E 010°25'7 7.2
2016-Jan-27 17:33N 57°49' E 010°38'6 6.1
2016-Jan-27 16:33N 57°48' E 010°49'9 9.2
2016-Jan-27 15:33N 57°41' E 011°02'9 8.7
2016-Jan-27 14:33N 57°35' E 011°13'9 9.3
2016-Jan-27 13:33N 57°29' E 011°26'10 9.6
2016-Jan-27 12:33N 57°20' E 011°32'10 9.8
2016-Jan-27 11:33N 57°11' E 011°38'63 9.0
2016-Jan-27 04:33N 56°14' E 012°27'8 8.5
2016-Jan-27 03:33N 56°06' E 012°34'9 8.6
2016-Jan-27 02:33N 55°59' E 012°42'9 8.7
2016-Jan-27 01:33N 55°50' E 012°43'  

Dump ship's entire track history